sensor_id;sensor_type;location;lat;lon;timestamp;P1;durP1;ratioP1;P2;durP2;ratioP2
20794;SDS011;28087;-33.874;151.240;2024-02-21T00:01:28;8.02;;;1.48;;
20794;SDS011;28087;-33.874;151.240;2024-02-21T00:04:35;4.40;;;1.10;;
20794;SDS011;28087;-33.874;151.240;2024-02-21T00:07:41;8.30;;;1.45;;
20794;SDS011;28087;-33.874;151.240;2024-02-21T00:10:48;7.05;;;1.30;;
20794;SDS011;28087;-33.874;151.240;2024-02-21T00:13:56;5.53;;;1.48;;
20794;SDS011;28087;-33.874;151.240;2024-02-21T00:17:02;4.63;;;1.30;;
20794;SDS011;28087;-33.874;151.240;2024-02-21T00:20:12;5.28;;;1.38;;
20794;SDS011;28087;-33.874;151.240;2024-02-21T00:23:18;4.85;;;1.17;;
20794;SDS011;28087;-33.874;151.240;2024-02-21T00:26:24;6.05;;;1.50;;
20794;SDS011;28087;-33.874;151.240;2024-02-21T00:29:32;5.72;;;1.30;;
20794;SDS011;28087;-33.874;151.240;2024-02-21T00:32:38;4.53;;;1.30;;
20794;SDS011;28087;-33.874;151.240;2024-02-21T00:35:47;7.47;;;1.35;;
20794;SDS011;28087;-33.874;151.240;2024-02-21T00:38:52;6.68;;;1.30;;
20794;SDS011;28087;-33.874;151.240;2024-02-21T00:42:01;6.40;;;1.40;;
20794;SDS011;28087;-33.874;151.240;2024-02-21T00:45:08;6.93;;;1.55;;
20794;SDS011;28087;-33.874;151.240;2024-02-21T00:48:13;5.70;;;1.30;;
20794;SDS011;28087;-33.874;151.240;2024-02-21T00:51:22;6.68;;;1.48;;
20794;SDS011;28087;-33.874;151.240;2024-02-21T00:54:28;5.75;;;1.23;;
20794;SDS011;28087;-33.874;151.240;2024-02-21T00:57:43;5.95;;;1.30;;
20794;SDS011;28087;-33.874;151.240;2024-02-21T01:00:50;5.70;;;1.30;;
20794;SDS011;28087;-33.874;151.240;2024-02-21T01:04:00;5.47;;;1.13;;
20794;SDS011;28087;-33.874;151.240;2024-02-21T01:07:09;4.65;;;1.20;;
20794;SDS011;28087;-33.874;151.240;2024-02-21T01:10:15;4.00;;;1.30;;
20794;SDS011;28087;-33.874;151.240;2024-02-21T01:13:22;7.35;;;1.40;;
20794;SDS011;28087;-33.874;151.240;2024-02-21T01:16:28;5.80;;;1.40;;
20794;SDS011;28087;-33.874;151.240;2024-02-21T01:19:34;5.85;;;1.40;;
20794;SDS011;28087;-33.874;151.240;2024-02-21T01:22:43;7.55;;;1.40;;
20794;SDS011;28087;-33.874;151.240;2024-02-21T01:25:44;4.55;;;1.30;;
20794;SDS011;28087;-33.874;151.240;2024-02-21T01:28:44;4.47;;;1.40;;
20794;SDS011;28087;-33.874;151.240;2024-02-21T01:31:52;6.78;;;1.50;;
20794;SDS011;28087;-33.874;151.240;2024-02-21T01:34:58;10.05;;;1.80;;
20794;SDS011;28087;-33.874;151.240;2024-02-21T01:38:09;4.20;;;1.20;;
20794;SDS011;28087;-33.874;151.240;2024-02-21T01:41:16;6.95;;;1.50;;
20794;SDS011;28087;-33.874;151.240;2024-02-21T01:44:24;4.72;;;1.30;;
20794;SDS011;28087;-33.874;151.240;2024-02-21T01:47:30;12.02;;;1.60;;
20794;SDS011;28087;-33.874;151.240;2024-02-21T01:50:38;6.32;;;1.80;;
20794;SDS011;28087;-33.874;151.240;2024-02-21T01:53:46;7.13;;;1.30;;
20794;SDS011;28087;-33.874;151.240;2024-02-21T01:56:52;7.28;;;1.40;;
20794;SDS011;28087;-33.874;151.240;2024-02-21T02:00:00;7.70;;;1.50;;
20794;SDS011;28087;-33.874;151.240;2024-02-21T02:03:09;6.55;;;1.20;;
20794;SDS011;28087;-33.874;151.240;2024-02-21T02:06:15;5.53;;;1.67;;
20794;SDS011;28087;-33.874;151.240;2024-02-21T02:09:24;8.00;;;1.35;;
20794;SDS011;28087;-33.874;151.240;2024-02-21T02:12:30;6.38;;;1.40;;
20794;SDS011;28087;-33.874;151.240;2024-02-21T02:15:40;5.53;;;1.25;;
20794;SDS011;28087;-33.874;151.240;2024-02-21T02:18:45;7.60;;;1.40;;
20794;SDS011;28087;-33.874;151.240;2024-02-21T02:21:53;8.90;;;1.70;;
20794;SDS011;28087;-33.874;151.240;2024-02-21T02:25:03;4.95;;;1.25;;
20794;SDS011;28087;-33.874;151.240;2024-02-21T02:28:09;6.63;;;1.30;;
20794;SDS011;28087;-33.874;151.240;2024-02-21T02:31:15;8.60;;;1.67;;
20794;SDS011;28087;-33.874;151.240;2024-02-21T02:34:22;6.93;;;1.38;;
20794;SDS011;28087;-33.874;151.240;2024-02-21T02:37:30;5.97;;;1.55;;
20794;SDS011;28087;-33.874;151.240;2024-02-21T02:40:40;5.78;;;1.27;;
20794;SDS011;28087;-33.874;151.240;2024-02-21T02:43:49;4.45;;;1.02;;
20794;SDS011;28087;-33.874;151.240;2024-02-21T02:46:56;5.00;;;1.08;;
20794;SDS011;28087;-33.874;151.240;2024-02-21T02:50:06;5.75;;;1.20;;
20794;SDS011;28087;-33.874;151.240;2024-02-21T02:53:11;3.90;;;1.02;;
20794;SDS011;28087;-33.874;151.240;2024-02-21T02:56:19;5.60;;;1.30;;
20794;SDS011;28087;-33.874;151.240;2024-02-21T02:59:24;6.20;;;1.20;;
20794;SDS011;28087;-33.874;151.240;2024-02-21T03:02:30;12.13;;;1.95;;
20794;SDS011;28087;-33.874;151.240;2024-02-21T03:05:39;7.90;;;1.65;;
20794;SDS011;28087;-33.874;151.240;2024-02-21T03:08:45;7.10;;;1.73;;
20794;SDS011;28087;-33.874;151.240;2024-02-21T03:11:53;7.93;;;1.83;;
20794;SDS011;28087;-33.874;151.240;2024-02-21T03:14:59;8.27;;;1.83;;
20794;SDS011;28087;-33.874;151.240;2024-02-21T03:18:05;5.35;;;1.27;;
20794;SDS011;28087;-33.874;151.240;2024-02-21T03:21:12;10.05;;;1.50;;
20794;SDS011;28087;-33.874;151.240;2024-02-21T03:24:19;8.10;;;1.40;;
20794;SDS011;28087;-33.874;151.240;2024-02-21T03:27:28;6.35;;;1.27;;
20794;SDS011;28087;-33.874;151.240;2024-02-21T03:30:28;9.43;;;1.20;;
20794;SDS011;28087;-33.874;151.240;2024-02-21T03:33:37;8.60;;;1.33;;
20794;SDS011;28087;-33.874;151.240;2024-02-21T03:36:50;5.15;;;1.10;;
20794;SDS011;28087;-33.874;151.240;2024-02-21T03:39:57;7.63;;;1.20;;
20794;SDS011;28087;-33.874;151.240;2024-02-21T03:43:07;4.95;;;1.05;;
20794;SDS011;28087;-33.874;151.240;2024-02-21T03:46:07;6.53;;;1.38;;
20794;SDS011;28087;-33.874;151.240;2024-02-21T03:49:07;4.85;;;1.13;;
20794;SDS011;28087;-33.874;151.240;2024-02-21T03:52:14;5.13;;;0.95;;
20794;SDS011;28087;-33.874;151.240;2024-02-21T03:55:21;4.65;;;0.80;;
20794;SDS011;28087;-33.874;151.240;2024-02-21T03:58:29;3.17;;;0.85;;
20794;SDS011;28087;-33.874;151.240;2024-02-21T04:01:36;5.13;;;0.90;;
20794;SDS011;28087;-33.874;151.240;2024-02-21T04:04:43;3.17;;;0.90;;
20794;SDS011;28087;-33.874;151.240;2024-02-21T04:07:49;3.47;;;0.82;;
20794;SDS011;28087;-33.874;151.240;2024-02-21T04:10:56;3.17;;;0.73;;
20794;SDS011;28087;-33.874;151.240;2024-02-21T04:14:06;2.92;;;0.65;;
20794;SDS011;28087;-33.874;151.240;2024-02-21T04:17:13;3.10;;;0.70;;
20794;SDS011;28087;-33.874;151.240;2024-02-21T04:20:20;7.45;;;0.93;;
20794;SDS011;28087;-33.874;151.240;2024-02-21T04:23:27;3.03;;;0.75;;
20794;SDS011;28087;-33.874;151.240;2024-02-21T04:26:34;5.03;;;0.80;;
20794;SDS011;28087;-33.874;151.240;2024-02-21T04:29:41;3.20;;;0.70;;
20794;SDS011;28087;-33.874;151.240;2024-02-21T04:32:49;2.58;;;0.70;;
20794;SDS011;28087;-33.874;151.240;2024-02-21T04:35:57;2.72;;;0.70;;
20794;SDS011;28087;-33.874;151.240;2024-02-21T04:38:58;5.20;;;0.90;;
20794;SDS011;28087;-33.874;151.240;2024-02-21T04:41:57;4.05;;;0.80;;
20794;SDS011;28087;-33.874;151.240;2024-02-21T04:45:06;3.17;;;0.60;;
20794;SDS011;28087;-33.874;151.240;2024-02-21T04:48:11;2.22;;;0.52;;
20794;SDS011;28087;-33.874;151.240;2024-02-21T04:51:19;2.40;;;0.77;;
20794;SDS011;28087;-33.874;151.240;2024-02-21T04:54:25;5.03;;;0.95;;
20794;SDS011;28087;-33.874;151.240;2024-02-21T04:57:31;3.17;;;0.80;;
20794;SDS011;28087;-33.874;151.240;2024-02-21T05:00:40;4.55;;;1.05;;
20794;SDS011;28087;-33.874;151.240;2024-02-21T05:03:47;6.63;;;1.00;;
20794;SDS011;28087;-33.874;151.240;2024-02-21T05:06:55;3.88;;;0.93;;
20794;SDS011;28087;-33.874;151.240;2024-02-21T05:10:03;4.10;;;0.90;;
20794;SDS011;28087;-33.874;151.240;2024-02-21T05:13:09;2.72;;;0.80;;
20794;SDS011;28087;-33.874;151.240;2024-02-21T05:16:17;4.38;;;1.00;;
20794;SDS011;28087;-33.874;151.240;2024-02-21T05:19:25;5.07;;;1.13;;
20794;SDS011;28087;-33.874;151.240;2024-02-21T05:22:31;4.18;;;0.95;;
20794;SDS011;28087;-33.874;151.240;2024-02-21T05:25:37;5.78;;;1.30;;
20794;SDS011;28087;-33.874;151.240;2024-02-21T05:28:44;4.97;;;1.10;;
20794;SDS011;28087;-33.874;151.240;2024-02-21T05:32:00;4.43;;;0.90;;
20794;SDS011;28087;-33.874;151.240;2024-02-21T05:35:07;4.30;;;0.80;;
20794;SDS011;28087;-33.874;151.240;2024-02-21T05:38:14;4.60;;;0.70;;
20794;SDS011;28087;-33.874;151.240;2024-02-21T05:41:19;4.95;;;1.00;;
20794;SDS011;28087;-33.874;151.240;2024-02-21T05:44:26;6.05;;;0.85;;
20794;SDS011;28087;-33.874;151.240;2024-02-21T05:47:33;4.82;;;0.98;;
20794;SDS011;28087;-33.874;151.240;2024-02-21T05:50:39;4.65;;;1.00;;
20794;SDS011;28087;-33.874;151.240;2024-02-21T05:53:46;5.32;;;0.98;;
20794;SDS011;28087;-33.874;151.240;2024-02-21T05:56:52;3.03;;;0.90;;
20794;SDS011;28087;-33.874;151.240;2024-02-21T05:59:58;5.40;;;0.80;;
20794;SDS011;28087;-33.874;151.240;2024-02-21T06:03:06;4.97;;;0.93;;
20794;SDS011;28087;-33.874;151.240;2024-02-21T06:06:12;3.22;;;0.80;;
20794;SDS011;28087;-33.874;151.240;2024-02-21T06:09:13;3.90;;;0.82;;
20794;SDS011;28087;-33.874;151.240;2024-02-21T06:12:12;3.85;;;1.00;;
20794;SDS011;28087;-33.874;151.240;2024-02-21T06:15:19;4.82;;;0.80;;
20794;SDS011;28087;-33.874;151.240;2024-02-21T06:18:26;3.63;;;0.80;;
20794;SDS011;28087;-33.874;151.240;2024-02-21T06:21:31;4.32;;;0.98;;
20794;SDS011;28087;-33.874;151.240;2024-02-21T06:24:38;1.77;;;0.70;;
20794;SDS011;28087;-33.874;151.240;2024-02-21T06:27:45;2.60;;;0.80;;
20794;SDS011;28087;-33.874;151.240;2024-02-21T06:30:51;3.65;;;0.80;;
20794;SDS011;28087;-33.874;151.240;2024-02-21T06:33:58;3.80;;;0.80;;
20794;SDS011;28087;-33.874;151.240;2024-02-21T06:37:05;3.88;;;0.70;;
20794;SDS011;28087;-33.874;151.240;2024-02-21T06:40:12;3.65;;;0.93;;
20794;SDS011;28087;-33.874;151.240;2024-02-21T06:43:20;3.55;;;1.00;;
20794;SDS011;28087;-33.874;151.240;2024-02-21T06:46:26;2.72;;;0.80;;
20794;SDS011;28087;-33.874;151.240;2024-02-21T06:49:35;3.90;;;0.80;;
20794;SDS011;28087;-33.874;151.240;2024-02-21T06:52:42;2.83;;;0.80;;
20794;SDS011;28087;-33.874;151.240;2024-02-21T06:55:49;3.95;;;0.90;;
20794;SDS011;28087;-33.874;151.240;2024-02-21T06:58:55;3.00;;;0.70;;
20794;SDS011;28087;-33.874;151.240;2024-02-21T07:02:01;1.98;;;0.80;;
20794;SDS011;28087;-33.874;151.240;2024-02-21T07:05:11;4.88;;;1.00;;
20794;SDS011;28087;-33.874;151.240;2024-02-21T07:08:18;4.65;;;1.00;;
20794;SDS011;28087;-33.874;151.240;2024-02-21T07:11:24;4.63;;;1.25;;
20794;SDS011;28087;-33.874;151.240;2024-02-21T07:14:30;4.40;;;1.30;;
20794;SDS011;28087;-33.874;151.240;2024-02-21T07:17:38;4.13;;;1.40;;
20794;SDS011;28087;-33.874;151.240;2024-02-21T07:20:46;4.25;;;1.20;;
20794;SDS011;28087;-33.874;151.240;2024-02-21T07:23:53;4.35;;;1.17;;
20794;SDS011;28087;-33.874;151.240;2024-02-21T07:26:53;3.35;;;1.40;;
20794;SDS011;28087;-33.874;151.240;2024-02-21T07:29:54;3.72;;;1.27;;
20794;SDS011;28087;-33.874;151.240;2024-02-21T07:33:05;4.18;;;1.40;;
20794;SDS011;28087;-33.874;151.240;2024-02-21T07:36:14;4.25;;;1.40;;
20794;SDS011;28087;-33.874;151.240;2024-02-21T07:39:20;4.78;;;1.30;;
20794;SDS011;28087;-33.874;151.240;2024-02-21T07:42:26;5.90;;;1.90;;
20794;SDS011;28087;-33.874;151.240;2024-02-21T07:45:38;6.15;;;1.42;;
20794;SDS011;28087;-33.874;151.240;2024-02-21T07:48:45;7.97;;;4.28;;
20794;SDS011;28087;-33.874;151.240;2024-02-21T07:51:47;6.07;;;2.85;;
20794;SDS011;28087;-33.874;151.240;2024-02-21T07:54:48;9.45;;;4.88;;
20794;SDS011;28087;-33.874;151.240;2024-02-21T07:57:54;6.95;;;2.65;;
20794;SDS011;28087;-33.874;151.240;2024-02-21T08:01:01;8.40;;;3.78;;
20794;SDS011;28087;-33.874;151.240;2024-02-21T08:04:08;6.95;;;3.10;;
20794;SDS011;28087;-33.874;151.240;2024-02-21T08:07:17;7.53;;;4.10;;
20794;SDS011;28087;-33.874;151.240;2024-02-21T08:10:25;7.22;;;3.30;;
20794;SDS011;28087;-33.874;151.240;2024-02-21T08:13:41;10.70;;;3.42;;
20794;SDS011;28087;-33.874;151.240;2024-02-21T08:16:48;11.75;;;7.30;;
20794;SDS011;28087;-33.874;151.240;2024-02-21T08:19:50;9.38;;;3.25;;
20794;SDS011;28087;-33.874;151.240;2024-02-21T08:23:00;8.48;;;2.03;;
20794;SDS011;28087;-33.874;151.240;2024-02-21T08:26:07;8.25;;;1.90;;
20794;SDS011;28087;-33.874;151.240;2024-02-21T08:29:14;7.82;;;1.83;;
20794;SDS011;28087;-33.874;151.240;2024-02-21T08:32:20;6.00;;;1.70;;
20794;SDS011;28087;-33.874;151.240;2024-02-21T08:35:28;7.50;;;2.47;;
20794;SDS011;28087;-33.874;151.240;2024-02-21T08:38:37;11.80;;;5.55;;
20794;SDS011;28087;-33.874;151.240;2024-02-21T08:41:43;9.23;;;2.00;;
20794;SDS011;28087;-33.874;151.240;2024-02-21T08:44:49;6.80;;;1.40;;
20794;SDS011;28087;-33.874;151.240;2024-02-21T08:47:55;6.38;;;1.65;;
20794;SDS011;28087;-33.874;151.240;2024-02-21T08:51:02;8.38;;;1.98;;
20794;SDS011;28087;-33.874;151.240;2024-02-21T08:54:11;7.55;;;1.98;;
20794;SDS011;28087;-33.874;151.240;2024-02-21T08:57:18;6.38;;;1.90;;
20794;SDS011;28087;-33.874;151.240;2024-02-21T09:00:25;11.95;;;1.95;;
20794;SDS011;28087;-33.874;151.240;2024-02-21T09:03:32;12.38;;;2.30;;
20794;SDS011;28087;-33.874;151.240;2024-02-21T09:06:39;10.38;;;2.38;;
20794;SDS011;28087;-33.874;151.240;2024-02-21T09:09:47;11.88;;;2.28;;
20794;SDS011;28087;-33.874;151.240;2024-02-21T09:12:54;8.73;;;1.90;;
20794;SDS011;28087;-33.874;151.240;2024-02-21T09:16:01;9.10;;;2.00;;
20794;SDS011;28087;-33.874;151.240;2024-02-21T09:19:07;9.45;;;1.80;;
20794;SDS011;28087;-33.874;151.240;2024-02-21T09:22:15;7.03;;;1.75;;
20794;SDS011;28087;-33.874;151.240;2024-02-21T09:25:25;8.73;;;1.60;;
20794;SDS011;28087;-33.874;151.240;2024-02-21T09:28:31;7.93;;;1.88;;
20794;SDS011;28087;-33.874;151.240;2024-02-21T09:31:40;10.20;;;2.00;;
20794;SDS011;28087;-33.874;151.240;2024-02-21T09:34:47;10.95;;;2.10;;
20794;SDS011;28087;-33.874;151.240;2024-02-21T09:38:00;7.15;;;2.38;;
20794;SDS011;28087;-33.874;151.240;2024-02-21T09:41:14;10.88;;;2.03;;
20794;SDS011;28087;-33.874;151.240;2024-02-21T09:44:23;10.32;;;2.33;;
20794;SDS011;28087;-33.874;151.240;2024-02-21T09:47:42;15.15;;;2.42;;
20794;SDS011;28087;-33.874;151.240;2024-02-21T09:50:55;11.63;;;2.40;;
20794;SDS011;28087;-33.874;151.240;2024-02-21T09:54:04;9.27;;;1.90;;
20794;SDS011;28087;-33.874;151.240;2024-02-21T09:57:13;11.63;;;2.30;;
20794;SDS011;28087;-33.874;151.240;2024-02-21T10:00:20;9.38;;;2.50;;
20794;SDS011;28087;-33.874;151.240;2024-02-21T10:03:28;10.85;;;2.40;;
20794;SDS011;28087;-33.874;151.240;2024-02-21T10:06:34;11.80;;;2.22;;
20794;SDS011;28087;-33.874;151.240;2024-02-21T10:09:41;10.88;;;2.30;;
20794;SDS011;28087;-33.874;151.240;2024-02-21T10:12:52;10.45;;;2.25;;
20794;SDS011;28087;-33.874;151.240;2024-02-21T10:16:01;12.35;;;2.15;;
20794;SDS011;28087;-33.874;151.240;2024-02-21T10:19:15;9.73;;;2.05;;
20794;SDS011;28087;-33.874;151.240;2024-02-21T10:22:22;9.50;;;2.15;;
20794;SDS011;28087;-33.874;151.240;2024-02-21T10:25:32;10.55;;;2.10;;
20794;SDS011;28087;-33.874;151.240;2024-02-21T10:28:45;6.47;;;1.80;;
20794;SDS011;28087;-33.874;151.240;2024-02-21T10:31:53;10.13;;;2.05;;
20794;SDS011;28087;-33.874;151.240;2024-02-21T10:35:08;8.70;;;1.88;;
20794;SDS011;28087;-33.874;151.240;2024-02-21T10:38:16;9.80;;;1.80;;
20794;SDS011;28087;-33.874;151.240;2024-02-21T10:41:22;8.35;;;2.00;;
20794;SDS011;28087;-33.874;151.240;2024-02-21T10:44:32;10.32;;;2.03;;
20794;SDS011;28087;-33.874;151.240;2024-02-21T10:47:41;12.30;;;2.10;;
20794;SDS011;28087;-33.874;151.240;2024-02-21T10:50:53;7.32;;;2.00;;
20794;SDS011;28087;-33.874;151.240;2024-02-21T10:54:05;6.50;;;1.50;;
20794;SDS011;28087;-33.874;151.240;2024-02-21T10:57:14;7.80;;;1.58;;
20794;SDS011;28087;-33.874;151.240;2024-02-21T11:00:22;8.77;;;1.80;;
20794;SDS011;28087;-33.874;151.240;2024-02-21T11:03:32;6.13;;;1.50;;
20794;SDS011;28087;-33.874;151.240;2024-02-21T11:06:39;7.78;;;1.63;;
20794;SDS011;28087;-33.874;151.240;2024-02-21T11:09:51;6.60;;;1.73;;
20794;SDS011;28087;-33.874;151.240;2024-02-21T11:13:05;7.28;;;2.00;;
20794;SDS011;28087;-33.874;151.240;2024-02-21T11:16:21;6.15;;;1.50;;
20794;SDS011;28087;-33.874;151.240;2024-02-21T11:19:31;7.25;;;1.70;;
20794;SDS011;28087;-33.874;151.240;2024-02-21T11:22:41;8.93;;;1.80;;
20794;SDS011;28087;-33.874;151.240;2024-02-21T11:25:49;9.40;;;1.77;;
20794;SDS011;28087;-33.874;151.240;2024-02-21T11:28:59;6.35;;;1.60;;
20794;SDS011;28087;-33.874;151.240;2024-02-21T11:32:09;5.18;;;1.55;;
20794;SDS011;28087;-33.874;151.240;2024-02-21T11:35:19;8.07;;;1.60;;
20794;SDS011;28087;-33.874;151.240;2024-02-21T11:38:26;7.32;;;1.50;;
20794;SDS011;28087;-33.874;151.240;2024-02-21T11:41:32;7.72;;;1.40;;
20794;SDS011;28087;-33.874;151.240;2024-02-21T11:44:38;9.70;;;1.40;;
20794;SDS011;28087;-33.874;151.240;2024-02-21T11:47:48;6.60;;;1.50;;
20794;SDS011;28087;-33.874;151.240;2024-02-21T11:50:57;8.98;;;1.40;;
20794;SDS011;28087;-33.874;151.240;2024-02-21T11:54:16;7.78;;;1.50;;
20794;SDS011;28087;-33.874;151.240;2024-02-21T11:57:22;4.47;;;1.38;;
20794;SDS011;28087;-33.874;151.240;2024-02-21T12:00:30;8.98;;;1.42;;
20794;SDS011;28087;-33.874;151.240;2024-02-21T12:03:38;7.60;;;1.40;;
20794;SDS011;28087;-33.874;151.240;2024-02-21T12:06:46;7.80;;;1.70;;
20794;SDS011;28087;-33.874;151.240;2024-02-21T12:09:58;6.05;;;1.42;;
20794;SDS011;28087;-33.874;151.240;2024-02-21T12:13:06;6.60;;;1.77;;
20794;SDS011;28087;-33.874;151.240;2024-02-21T12:16:15;8.35;;;1.90;;
20794;SDS011;28087;-33.874;151.240;2024-02-21T12:19:26;6.75;;;1.92;;
20794;SDS011;28087;-33.874;151.240;2024-02-21T12:22:33;7.45;;;1.95;;
20794;SDS011;28087;-33.874;151.240;2024-02-21T12:25:40;8.20;;;2.28;;
20794;SDS011;28087;-33.874;151.240;2024-02-21T12:28:48;9.68;;;2.58;;
20794;SDS011;28087;-33.874;151.240;2024-02-21T12:31:55;8.02;;;2.08;;
20794;SDS011;28087;-33.874;151.240;2024-02-21T12:35:04;9.15;;;1.98;;
20794;SDS011;28087;-33.874;151.240;2024-02-21T12:38:12;6.03;;;1.70;;
20794;SDS011;28087;-33.874;151.240;2024-02-21T12:41:18;5.28;;;1.40;;
20794;SDS011;28087;-33.874;151.240;2024-02-21T12:44:25;7.20;;;1.63;;
20794;SDS011;28087;-33.874;151.240;2024-02-21T12:47:33;6.22;;;1.58;;
20794;SDS011;28087;-33.874;151.240;2024-02-21T12:50:43;6.97;;;1.33;;
20794;SDS011;28087;-33.874;151.240;2024-02-21T12:53:55;6.15;;;1.40;;
20794;SDS011;28087;-33.874;151.240;2024-02-21T12:57:01;5.28;;;1.20;;
20794;SDS011;28087;-33.874;151.240;2024-02-21T13:00:10;6.72;;;1.70;;
20794;SDS011;28087;-33.874;151.240;2024-02-21T13:03:18;4.93;;;1.10;;
20794;SDS011;28087;-33.874;151.240;2024-02-21T13:06:35;7.20;;;1.50;;
20794;SDS011;28087;-33.874;151.240;2024-02-21T13:09:40;5.28;;;1.30;;
20794;SDS011;28087;-33.874;151.240;2024-02-21T13:12:46;4.68;;;1.15;;
20794;SDS011;28087;-33.874;151.240;2024-02-21T13:15:53;4.90;;;1.10;;
20794;SDS011;28087;-33.874;151.240;2024-02-21T13:19:01;7.38;;;1.40;;
20794;SDS011;28087;-33.874;151.240;2024-02-21T13:22:12;7.93;;;1.30;;
20794;SDS011;28087;-33.874;151.240;2024-02-21T13:25:19;6.35;;;1.20;;
20794;SDS011;28087;-33.874;151.240;2024-02-21T13:28:26;7.35;;;1.05;;
20794;SDS011;28087;-33.874;151.240;2024-02-21T13:31:33;3.90;;;1.10;;
20794;SDS011;28087;-33.874;151.240;2024-02-21T13:34:40;6.65;;;1.35;;
20794;SDS011;28087;-33.874;151.240;2024-02-21T13:37:51;6.45;;;1.20;;
20794;SDS011;28087;-33.874;151.240;2024-02-21T13:40:59;6.47;;;1.38;;
20794;SDS011;28087;-33.874;151.240;2024-02-21T13:44:06;5.05;;;1.20;;
20794;SDS011;28087;-33.874;151.240;2024-02-21T13:47:12;7.53;;;1.20;;
20794;SDS011;28087;-33.874;151.240;2024-02-21T13:50:22;9.32;;;1.38;;
20794;SDS011;28087;-33.874;151.240;2024-02-21T13:53:29;5.40;;;1.10;;
20794;SDS011;28087;-33.874;151.240;2024-02-21T13:56:35;3.72;;;1.15;;
20794;SDS011;28087;-33.874;151.240;2024-02-21T13:59:41;5.88;;;1.40;;
20794;SDS011;28087;-33.874;151.240;2024-02-21T14:02:56;5.63;;;1.63;;
20794;SDS011;28087;-33.874;151.240;2024-02-21T14:06:04;4.57;;;1.35;;
20794;SDS011;28087;-33.874;151.240;2024-02-21T14:09:12;5.70;;;1.38;;
20794;SDS011;28087;-33.874;151.240;2024-02-21T14:12:21;8.60;;;1.50;;
20794;SDS011;28087;-33.874;151.240;2024-02-21T14:15:29;6.55;;;1.48;;
20794;SDS011;28087;-33.874;151.240;2024-02-21T14:18:36;8.70;;;1.40;;
20794;SDS011;28087;-33.874;151.240;2024-02-21T14:21:43;5.00;;;1.52;;
20794;SDS011;28087;-33.874;151.240;2024-02-21T14:24:51;5.55;;;1.50;;
20794;SDS011;28087;-33.874;151.240;2024-02-21T14:27:58;8.38;;;1.73;;
20794;SDS011;28087;-33.874;151.240;2024-02-21T14:30:59;7.70;;;1.70;;
20794;SDS011;28087;-33.874;151.240;2024-02-21T14:34:00;6.38;;;1.52;;
20794;SDS011;28087;-33.874;151.240;2024-02-21T14:37:07;6.47;;;1.50;;
20794;SDS011;28087;-33.874;151.240;2024-02-21T14:40:16;7.63;;;1.50;;
20794;SDS011;28087;-33.874;151.240;2024-02-21T14:43:23;7.78;;;1.50;;
20794;SDS011;28087;-33.874;151.240;2024-02-21T14:46:30;7.78;;;1.63;;
20794;SDS011;28087;-33.874;151.240;2024-02-21T14:49:38;5.55;;;1.45;;
20794;SDS011;28087;-33.874;151.240;2024-02-21T14:52:44;7.47;;;1.50;;
20794;SDS011;28087;-33.874;151.240;2024-02-21T14:55:53;9.25;;;1.88;;
20794;SDS011;28087;-33.874;151.240;2024-02-21T14:59:00;6.07;;;1.50;;
20794;SDS011;28087;-33.874;151.240;2024-02-21T15:02:21;6.07;;;1.63;;
20794;SDS011;28087;-33.874;151.240;2024-02-21T15:05:28;7.97;;;1.95;;
20794;SDS011;28087;-33.874;151.240;2024-02-21T15:08:30;6.93;;;2.10;;
20794;SDS011;28087;-33.874;151.240;2024-02-21T15:11:33;6.55;;;1.80;;
20794;SDS011;28087;-33.874;151.240;2024-02-21T15:14:41;5.43;;;1.55;;
20794;SDS011;28087;-33.874;151.240;2024-02-21T15:17:48;10.10;;;1.70;;
20794;SDS011;28087;-33.874;151.240;2024-02-21T15:20:55;7.53;;;1.77;;
20794;SDS011;28087;-33.874;151.240;2024-02-21T15:24:04;7.25;;;1.70;;
20794;SDS011;28087;-33.874;151.240;2024-02-21T15:27:14;8.52;;;1.73;;
20794;SDS011;28087;-33.874;151.240;2024-02-21T15:30:26;9.50;;;1.55;;
20794;SDS011;28087;-33.874;151.240;2024-02-21T15:33:33;4.90;;;1.60;;
20794;SDS011;28087;-33.874;151.240;2024-02-21T15:36:40;8.85;;;1.77;;
20794;SDS011;28087;-33.874;151.240;2024-02-21T15:39:46;8.57;;;1.70;;
20794;SDS011;28087;-33.874;151.240;2024-02-21T15:42:57;7.90;;;1.98;;
20794;SDS011;28087;-33.874;151.240;2024-02-21T15:46:06;7.78;;;2.03;;
20794;SDS011;28087;-33.874;151.240;2024-02-21T15:49:14;7.13;;;1.77;;
20794;SDS011;28087;-33.874;151.240;2024-02-21T15:52:21;6.63;;;1.55;;
20794;SDS011;28087;-33.874;151.240;2024-02-21T15:55:29;8.27;;;2.03;;
20794;SDS011;28087;-33.874;151.240;2024-02-21T15:58:37;9.48;;;1.75;;
20794;SDS011;28087;-33.874;151.240;2024-02-21T16:01:43;11.30;;;1.80;;
20794;SDS011;28087;-33.874;151.240;2024-02-21T16:04:49;9.05;;;1.60;;
20794;SDS011;28087;-33.874;151.240;2024-02-21T16:07:56;8.65;;;1.92;;
20794;SDS011;28087;-33.874;151.240;2024-02-21T16:11:02;6.15;;;1.60;;
20794;SDS011;28087;-33.874;151.240;2024-02-21T16:14:12;10.57;;;2.03;;
20794;SDS011;28087;-33.874;151.240;2024-02-21T16:17:19;5.70;;;1.50;;
20794;SDS011;28087;-33.874;151.240;2024-02-21T16:20:26;6.72;;;1.77;;
20794;SDS011;28087;-33.874;151.240;2024-02-21T16:23:33;7.25;;;1.60;;
20794;SDS011;28087;-33.874;151.240;2024-02-21T16:26:34;10.80;;;2.20;;
20794;SDS011;28087;-33.874;151.240;2024-02-21T16:29:37;8.15;;;2.08;;
20794;SDS011;28087;-33.874;151.240;2024-02-21T16:32:43;8.18;;;2.13;;
20794;SDS011;28087;-33.874;151.240;2024-02-21T16:35:53;7.68;;;1.90;;
20794;SDS011;28087;-33.874;151.240;2024-02-21T16:39:03;9.63;;;1.92;;
20794;SDS011;28087;-33.874;151.240;2024-02-21T16:42:13;11.07;;;2.05;;
20794;SDS011;28087;-33.874;151.240;2024-02-21T16:45:22;11.50;;;1.92;;
20794;SDS011;28087;-33.874;151.240;2024-02-21T16:48:28;9.98;;;2.30;;
20794;SDS011;28087;-33.874;151.240;2024-02-21T16:51:34;10.60;;;2.22;;
20794;SDS011;28087;-33.874;151.240;2024-02-21T16:54:40;10.45;;;2.20;;
20794;SDS011;28087;-33.874;151.240;2024-02-21T16:57:50;7.30;;;1.75;;
20794;SDS011;28087;-33.874;151.240;2024-02-21T17:00:58;9.32;;;1.88;;
20794;SDS011;28087;-33.874;151.240;2024-02-21T17:04:03;7.28;;;1.80;;
20794;SDS011;28087;-33.874;151.240;2024-02-21T17:07:10;10.25;;;2.10;;
20794;SDS011;28087;-33.874;151.240;2024-02-21T17:10:17;13.82;;;2.30;;
20794;SDS011;28087;-33.874;151.240;2024-02-21T17:13:24;10.00;;;2.13;;
20794;SDS011;28087;-33.874;151.240;2024-02-21T17:16:28;14.32;;;2.85;;
20794;SDS011;28087;-33.874;151.240;2024-02-21T17:19:30;8.77;;;2.08;;
20794;SDS011;28087;-33.874;151.240;2024-02-21T17:22:38;9.77;;;2.30;;
20794;SDS011;28087;-33.874;151.240;2024-02-21T17:25:45;10.63;;;2.33;;
20794;SDS011;28087;-33.874;151.240;2024-02-21T17:28:53;8.25;;;2.20;;
20794;SDS011;28087;-33.874;151.240;2024-02-21T17:32:04;12.30;;;2.50;;
20794;SDS011;28087;-33.874;151.240;2024-02-21T17:35:10;9.18;;;2.45;;
20794;SDS011;28087;-33.874;151.240;2024-02-21T17:38:21;8.43;;;2.10;;
20794;SDS011;28087;-33.874;151.240;2024-02-21T17:41:29;8.23;;;2.08;;
20794;SDS011;28087;-33.874;151.240;2024-02-21T17:44:35;10.85;;;2.10;;
20794;SDS011;28087;-33.874;151.240;2024-02-21T17:47:45;6.15;;;1.80;;
20794;SDS011;28087;-33.874;151.240;2024-02-21T17:51:13;9.20;;;1.70;;
20794;SDS011;28087;-33.874;151.240;2024-02-21T17:54:20;11.45;;;1.98;;
20794;SDS011;28087;-33.874;151.240;2024-02-21T17:57:22;6.90;;;1.95;;
20794;SDS011;28087;-33.874;151.240;2024-02-21T18:00:29;8.30;;;1.92;;